createdAt,value
2018-07-21T00:00:18.216Z,64.40
2018-07-21T00:02:46.461Z,64.00
2018-07-21T00:05:14.716Z,66.40
2018-07-21T00:07:42.950Z,68.80
2018-07-21T00:10:11.168Z,72.40
2018-07-21T00:12:39.502Z,73.70
2018-07-21T00:15:07.697Z,77.60
2018-07-21T00:17:36.016Z,79.70
2018-07-21T00:20:04.581Z,79.60
2018-07-21T00:22:32.846Z,80.30
2018-07-21T00:25:01.136Z,82.50
2018-07-21T00:27:29.402Z,84.10
2018-07-21T00:29:57.560Z,87.50
2018-07-21T00:32:25.788Z,87.20
2018-07-21T00:34:54.068Z,87.70
2018-07-21T00:37:22.341Z,86.50
2018-07-21T00:39:50.464Z,88.00
2018-07-21T00:42:18.699Z,86.90
2018-07-21T00:44:46.862Z,87.30
2018-07-21T00:47:15.054Z,88.30
2018-07-21T00:49:43.277Z,87.70
2018-07-21T00:52:11.433Z,87.10
2018-07-21T00:54:39.558Z,86.70
2018-07-21T00:57:07.725Z,84.90
2018-07-21T00:59:35.894Z,85.10
2018-07-21T01:02:04.056Z,85.70
2018-07-21T01:04:32.282Z,86.50
2018-07-21T01:07:00.524Z,87.80
2018-07-21T01:09:28.888Z,87.30
2018-07-21T01:11:57.076Z,87.60
2018-07-21T01:14:25.302Z,86.90
2018-07-21T01:16:53.438Z,88.10
2018-07-21T01:19:21.594Z,87.90
2018-07-21T01:21:49.735Z,88.20
2018-07-21T01:24:17.861Z,89.40
2018-07-21T01:26:46.063Z,89.40
2018-07-21T01:29:14.240Z,90.00
2018-07-21T01:31:42.388Z,90.60
2018-07-21T01:34:10.584Z,90.70
2018-07-21T01:36:38.795Z,90.80
2018-07-21T01:39:08.731Z,91.30
2018-07-21T01:41:36.979Z,91.60
2018-07-21T01:44:05.185Z,91.80
2018-07-21T01:46:33.487Z,91.80
2018-07-21T01:49:01.660Z,92.40
2018-07-21T01:51:29.980Z,92.20
2018-07-21T01:53:58.205Z,92.30
2018-07-21T01:56:26.456Z,93.00
2018-07-21T01:58:54.840Z,93.30
2018-07-21T02:01:23.309Z,93.10
2018-07-21T02:03:51.545Z,94.50
2018-07-21T02:06:19.795Z,94.80
2018-07-21T02:08:48.039Z,95.50
2018-07-21T02:11:16.441Z,94.90
2018-07-21T02:13:45.010Z,95.70
2018-07-21T02:16:13.372Z,95.90
2018-07-21T02:18:41.781Z,95.90
2018-07-21T02:21:09.912Z,95.70
2018-07-21T02:23:38.145Z,97.20
2018-07-21T02:26:06.369Z,97.70
2018-07-21T02:28:34.707Z,97.30
2018-07-21T02:31:02.916Z,97.80
2018-07-21T02:33:31.113Z,98.40
2018-07-21T02:35:59.438Z,99.10
2018-07-21T02:38:27.628Z,98.80
2018-07-21T02:40:55.800Z,99.00
2018-07-21T02:43:23.991Z,99.90
2018-07-21T02:45:52.251Z,99.90
2018-07-21T02:48:20.475Z,99.80
2018-07-21T02:50:48.625Z,98.70
2018-07-21T02:53:16.819Z,98.40
2018-07-21T02:55:45.129Z,98.10
2018-07-21T02:58:13.422Z,97.70
2018-07-21T03:00:41.600Z,98.00
2018-07-21T03:03:09.766Z,98.40
2018-07-21T03:05:37.986Z,99.20
2018-07-21T03:08:09.442Z,98.90
2018-07-21T03:10:37.764Z,98.30
2018-07-21T03:13:06.059Z,98.50
2018-07-21T03:15:34.249Z,98.30
2018-07-21T03:18:02.574Z,97.90
2018-07-21T03:20:30.768Z,97.60
2018-07-21T03:22:58.969Z,97.30
2018-07-21T03:25:27.222Z,95.90
2018-07-21T03:27:55.520Z,96.00
2018-07-21T03:30:23.731Z,96.40
2018-07-21T03:32:51.937Z,96.70
2018-07-21T03:35:20.219Z,95.50
2018-07-21T03:37:48.387Z,94.90
2018-07-21T03:40:16.573Z,94.50
2018-07-21T03:42:44.739Z,94.30
2018-07-21T03:45:12.979Z,93.30
2018-07-21T03:47:41.351Z,92.90
2018-07-21T03:50:09.493Z,92.00
2018-07-21T03:52:37.681Z,91.50
2018-07-21T03:55:06.069Z,90.50
2018-07-21T03:57:34.241Z,86.70
2018-07-21T04:00:02.526Z,86.00
2018-07-21T04:02:30.756Z,82.80
2018-07-21T04:04:58.943Z,83.40
2018-07-21T04:07:27.168Z,80.40
2018-07-21T04:09:55.309Z,79.70
2018-07-21T04:12:23.442Z,75.30
2018-07-21T04:14:51.649Z,71.20
2018-07-21T04:17:27.036Z,68.70
2018-07-21T04:19:56.061Z,65.10
2018-07-21T04:22:25.085Z,62.60
2018-07-21T04:24:53.494Z,59.20
2018-07-21T04:27:22.128Z,57.60
2018-07-21T04:29:50.466Z,56.50
2018-07-21T04:32:18.902Z,55.00
2018-07-21T04:34:47.116Z,53.00
2018-07-21T04:37:15.278Z,51.10
2018-07-21T04:39:43.510Z,48.90
2018-07-21T04:42:12.293Z,47.10
2018-07-21T04:44:40.488Z,45.30
2018-07-21T04:47:08.655Z,43.50
2018-07-21T04:49:36.878Z,41.60
2018-07-21T04:52:05.051Z,39.80
2018-07-21T04:54:33.226Z,38.10
2018-07-21T04:57:01.447Z,37.50
2018-07-21T04:59:29.880Z,36.50
2018-07-21T05:01:58.024Z,35.80
2018-07-21T05:04:26.295Z,35.40
2018-07-21T05:06:54.709Z,35.10
2018-07-21T05:09:22.884Z,34.00
2018-07-21T05:11:51.057Z,33.00
2018-07-21T05:14:19.280Z,31.90
2018-07-21T05:16:47.453Z,30.60
2018-07-21T05:19:15.612Z,29.70
2018-07-21T05:21:43.777Z,29.90
2018-07-21T05:24:11.928Z,29.40
2018-07-21T05:26:40.126Z,29.40
2018-07-21T05:29:08.392Z,29.50
2018-07-21T05:31:36.644Z,29.60
2018-07-21T05:34:04.949Z,29.00
2018-07-21T05:36:33.126Z,29.00
2018-07-21T05:39:01.400Z,29.20
2018-07-21T05:41:29.849Z,29.60
2018-07-21T05:43:58.049Z,28.60
2018-07-21T05:46:26.246Z,28.00
2018-07-21T05:48:54.376Z,27.60
2018-07-21T05:51:22.682Z,27.50
2018-07-21T05:53:51.201Z,26.80
2018-07-21T05:56:19.679Z,26.20
2018-07-21T05:58:47.843Z,25.70
2018-07-21T06:01:16.026Z,25.40
2018-07-21T06:03:44.805Z,25.30
2018-07-21T06:06:13.019Z,25.20
2018-07-21T06:08:41.460Z,25.30
2018-07-21T06:11:09.597Z,25.50
2018-07-21T06:13:37.811Z,25.30
2018-07-21T06:16:06.032Z,25.30
2018-07-21T06:18:34.248Z,24.70
2018-07-21T06:21:02.613Z,24.90
2018-07-21T06:23:30.935Z,24.20
2018-07-21T06:25:59.282Z,23.80
2018-07-21T06:28:27.467Z,23.60
2018-07-21T06:30:56.637Z,23.50
2018-07-21T06:33:24.817Z,23.60
2018-07-21T06:35:53.011Z,23.70
2018-07-21T06:38:22.750Z,23.70
2018-07-21T06:40:50.988Z,23.30
2018-07-21T06:43:19.210Z,23.40
2018-07-21T06:45:48.039Z,23.60
2018-07-21T06:48:16.286Z,23.60
2018-07-21T06:50:44.562Z,23.30
2018-07-21T06:53:12.700Z,23.70
2018-07-21T06:55:40.965Z,23.90
2018-07-21T06:58:09.351Z,23.50
2018-07-21T07:00:37.567Z,23.70
2018-07-21T07:03:05.763Z,24.00
2018-07-21T07:05:33.947Z,24.00
2018-07-21T07:08:02.190Z,24.10
2018-07-21T07:10:30.396Z,24.10
2018-07-21T07:12:58.734Z,24.40
2018-07-21T07:15:26.951Z,24.40
2018-07-21T07:17:55.158Z,24.60
2018-07-21T07:20:23.381Z,24.50
2018-07-21T07:22:51.653Z,24.40
2018-07-21T07:25:19.892Z,24.60
2018-07-21T07:27:49.351Z,25.10
2018-07-21T07:30:17.572Z,25.00
2018-07-21T07:32:45.817Z,25.10
2018-07-21T07:35:14.035Z,25.20
2018-07-21T07:37:42.189Z,25.10
2018-07-21T07:40:10.440Z,25.30
2018-07-21T07:42:38.632Z,25.60
2018-07-21T07:45:06.913Z,26.40
2018-07-21T07:47:35.196Z,26.30
2018-07-21T07:50:03.622Z,25.60
2018-07-21T07:52:31.796Z,26.80
2018-07-21T07:54:59.992Z,26.50
2018-07-21T07:57:28.160Z,26.80
2018-07-21T07:59:56.368Z,26.80
2018-07-21T08:02:24.598Z,26.80
2018-07-21T08:04:52.905Z,27.00
2018-07-21T08:07:21.329Z,27.40
2018-07-21T08:09:49.468Z,27.30
2018-07-21T08:12:17.658Z,26.80
2018-07-21T08:14:45.853Z,27.20
2018-07-21T08:17:14.096Z,27.80
2018-07-21T08:19:42.314Z,28.20
2018-07-21T08:22:10.628Z,28.20
2018-07-21T08:24:38.895Z,28.70
2018-07-21T08:27:07.201Z,28.20
2018-07-21T08:29:35.484Z,27.60
2018-07-21T08:32:03.821Z,28.20
2018-07-21T08:34:32.182Z,28.10
2018-07-21T08:37:00.450Z,28.30
2018-07-21T08:39:28.745Z,29.10
2018-07-21T08:41:57.668Z,29.10
2018-07-21T08:44:25.872Z,29.50
2018-07-21T08:46:54.089Z,30.40
2018-07-21T08:49:22.317Z,30.40
2018-07-21T08:51:50.734Z,30.50
2018-07-21T08:54:18.966Z,30.70
2018-07-21T08:56:47.157Z,30.50
2018-07-21T08:59:15.362Z,31.60
2018-07-21T09:01:43.543Z,31.60
2018-07-21T09:04:12.801Z,32.10
2018-07-21T09:06:40.977Z,32.20
2018-07-21T09:09:11.109Z,32.40
2018-07-21T09:11:39.587Z,33.10
2018-07-21T09:14:07.959Z,33.30
2018-07-21T09:16:36.456Z,34.30
2018-07-21T09:19:04.869Z,34.00
2018-07-21T09:21:33.246Z,34.40
2018-07-21T09:24:01.449Z,34.40
2018-07-21T09:26:29.642Z,34.90
2018-07-21T09:28:59.693Z,34.30
2018-07-21T09:31:27.898Z,34.20
2018-07-21T09:33:56.144Z,34.90
2018-07-21T09:36:24.423Z,34.20
2018-07-21T09:38:52.645Z,34.70
2018-07-21T09:41:20.925Z,34.70
2018-07-21T09:43:49.249Z,34.70
2018-07-21T09:46:17.508Z,34.60
2018-07-21T09:48:45.702Z,34.80
2018-07-21T09:51:13.914Z,33.90
2018-07-21T09:53:42.880Z,33.90
2018-07-21T09:56:11.100Z,33.90
2018-07-21T09:58:39.638Z,34.30
2018-07-21T10:01:07.800Z,34.20
2018-07-21T10:06:10.548Z,33.50
2018-07-21T10:08:38.802Z,32.50
2018-07-21T10:11:07.133Z,33.20
2018-07-21T10:13:35.497Z,34.20
2018-07-21T10:16:03.747Z,34.00
2018-07-21T10:18:31.920Z,33.60
2018-07-21T10:21:00.092Z,34.30
2018-07-21T10:23:28.437Z,34.60
2018-07-21T10:26:02.059Z,34.50
2018-07-21T10:28:35.667Z,34.40
2018-07-21T10:31:03.861Z,34.40
2018-07-21T10:33:32.640Z,34.20
2018-07-21T10:36:00.901Z,35.80
2018-07-21T10:38:29.073Z,35.80
2018-07-21T10:40:57.799Z,36.20
2018-07-21T10:43:26.045Z,36.40
2018-07-21T10:45:54.376Z,35.90
2018-07-21T10:48:22.668Z,35.90
2018-07-21T10:50:51.028Z,35.10
2018-07-21T10:53:20.914Z,35.10
2018-07-21T10:55:50.075Z,35.60
2018-07-21T10:58:18.420Z,36.30
2018-07-21T11:00:46.705Z,36.70
2018-07-21T11:03:14.919Z,36.80
2018-07-21T11:05:43.245Z,36.30
2018-07-21T11:08:11.564Z,35.60
2018-07-21T11:10:39.842Z,35.00
2018-07-21T11:13:08.162Z,35.70
2018-07-21T11:15:36.591Z,35.90
2018-07-21T11:18:04.818Z,36.60
2018-07-21T11:20:33.983Z,36.00
2018-07-21T11:23:02.481Z,36.60
2018-07-21T11:25:30.649Z,35.40
2018-07-21T11:27:59.525Z,35.70
2018-07-21T11:30:27.805Z,34.90
2018-07-21T11:32:56.039Z,34.90
2018-07-21T11:35:24.243Z,35.10
2018-07-21T11:37:52.581Z,34.80
2018-07-21T11:40:20.834Z,34.70
2018-07-21T11:42:49.057Z,33.90
2018-07-21T11:45:17.323Z,33.90
2018-07-21T11:47:45.532Z,33.50
2018-07-21T11:50:13.728Z,33.60
2018-07-21T11:52:41.918Z,33.50
2018-07-21T11:55:10.126Z,34.10
2018-07-21T11:57:38.338Z,33.90
2018-07-21T12:00:06.679Z,34.40
2018-07-21T12:02:35.081Z,35.00
2018-07-21T12:05:03.366Z,35.40
2018-07-21T12:07:31.633Z,34.40
2018-07-21T12:10:00.720Z,34.80
2018-07-21T12:12:28.959Z,35.10
2018-07-21T12:14:57.205Z,33.90
2018-07-21T12:17:25.413Z,34.70
2018-07-21T12:19:53.679Z,34.60
2018-07-21T12:22:21.887Z,34.60
2018-07-21T12:24:50.073Z,34.80
2018-07-21T12:27:18.304Z,35.10
2018-07-21T12:29:46.529Z,34.60
2018-07-21T12:32:14.828Z,34.40
2018-07-21T12:34:43.013Z,35.10
2018-07-21T12:37:11.355Z,35.90
2018-07-21T12:39:39.674Z,36.70
2018-07-21T12:42:08.059Z,36.60
2018-07-21T12:44:36.280Z,37.20
2018-07-21T12:47:04.645Z,37.40
2018-07-21T12:49:32.821Z,37.70
2018-07-21T12:52:01.110Z,37.80
2018-07-21T12:54:29.390Z,38.40
2018-07-21T12:56:57.695Z,38.00
2018-07-21T12:59:25.850Z,38.10
2018-07-21T13:01:54.059Z,38.50
2018-07-21T13:04:22.248Z,38.40
2018-07-21T13:06:50.570Z,38.90
2018-07-21T13:09:18.824Z,39.20
2018-07-21T13:11:47.147Z,39.00
2018-07-21T13:14:15.310Z,38.80
2018-07-21T13:16:43.485Z,38.60
2018-07-21T13:19:11.788Z,38.90
2018-07-21T13:21:39.960Z,38.00
2018-07-21T13:24:08.358Z,38.00
2018-07-21T13:26:36.814Z,37.40
2018-07-21T13:29:05.121Z,37.30
2018-07-21T13:31:34.013Z,38.20
2018-07-21T13:34:02.261Z,37.30
2018-07-21T13:36:30.541Z,37.90
2018-07-21T13:38:58.775Z,37.30
2018-07-21T13:41:27.220Z,37.90
2018-07-21T13:43:55.437Z,37.90
2018-07-21T13:46:23.640Z,38.30
2018-07-21T13:48:52.444Z,38.40
2018-07-21T13:51:20.613Z,38.60
2018-07-21T13:53:48.855Z,38.30
2018-07-21T13:56:17.205Z,38.90
2018-07-21T13:58:45.355Z,39.00
2018-07-21T14:01:15.541Z,38.40
2018-07-21T14:03:43.721Z,38.60
2018-07-21T14:06:11.966Z,38.80
2018-07-21T14:08:40.214Z,39.20
2018-07-21T14:11:08.532Z,39.10
2018-07-21T14:13:37.766Z,37.90
2018-07-21T14:16:06.802Z,37.90
2018-07-21T14:18:35.025Z,37.60
2018-07-21T14:21:03.185Z,37.70
2018-07-21T14:23:31.371Z,36.60
2018-07-21T14:25:59.685Z,36.60
2018-07-21T14:28:28.019Z,36.70
2018-07-21T14:30:56.452Z,36.70
2018-07-21T14:33:24.659Z,37.20
2018-07-21T14:35:52.946Z,37.00
2018-07-21T14:38:21.129Z,36.90
2018-07-21T14:40:49.289Z,37.50
2018-07-21T14:43:17.540Z,37.40
2018-07-21T14:45:45.689Z,37.00
2018-07-21T14:48:13.849Z,36.30
2018-07-21T14:50:42.077Z,35.90
2018-07-21T14:53:10.513Z,36.90
2018-07-21T14:55:38.992Z,36.00
2018-07-21T14:58:07.158Z,36.10
2018-07-21T15:00:35.385Z,36.50
2018-07-21T15:03:03.589Z,35.00
2018-07-21T15:05:31.813Z,35.00
2018-07-21T15:08:01.026Z,35.50
2018-07-21T15:10:29.357Z,34.70
2018-07-21T15:12:57.676Z,35.40
2018-07-21T15:15:25.945Z,35.20
2018-07-21T15:17:54.179Z,35.30
2018-07-21T15:20:22.386Z,35.70
2018-07-21T15:22:50.726Z,35.10
2018-07-21T15:25:18.988Z,35.70
2018-07-21T15:27:47.162Z,36.00
2018-07-21T15:30:15.280Z,36.00
2018-07-21T15:32:43.557Z,36.70
2018-07-21T15:35:11.816Z,36.70
2018-07-21T15:37:39.973Z,37.10
2018-07-21T15:40:08.159Z,37.70
2018-07-21T15:42:36.534Z,37.40
2018-07-21T15:45:05.036Z,37.10
2018-07-21T15:47:33.465Z,37.30
2018-07-21T15:50:01.719Z,38.10
2018-07-21T15:52:30.431Z,38.10
2018-07-21T15:54:58.606Z,38.60
2018-07-21T15:57:27.048Z,38.50
2018-07-21T15:59:55.377Z,38.50
2018-07-21T16:02:23.558Z,38.40
2018-07-21T16:04:51.718Z,38.90
2018-07-21T16:07:19.886Z,39.20
2018-07-21T16:09:48.081Z,38.80
2018-07-21T16:12:16.288Z,39.40
2018-07-21T16:14:44.659Z,39.20
2018-07-21T16:17:12.863Z,39.20
2018-07-21T16:19:41.178Z,39.30
2018-07-21T16:22:09.381Z,39.60
2018-07-21T16:24:37.723Z,39.50
2018-07-21T16:27:05.938Z,39.70
2018-07-21T16:29:34.277Z,39.80
2018-07-21T16:32:02.461Z,39.90
2018-07-21T16:34:30.757Z,40.10
2018-07-21T16:36:58.950Z,40.10
2018-07-21T16:39:27.141Z,40.10
2018-07-21T16:41:55.452Z,40.20
2018-07-21T16:44:23.692Z,40.30
2018-07-21T16:46:52.694Z,40.60
2018-07-21T16:49:20.921Z,40.60
2018-07-21T16:51:49.114Z,40.50
2018-07-21T16:54:17.339Z,40.90
2018-07-21T16:56:45.602Z,40.80
2018-07-21T16:59:13.905Z,40.80
2018-07-21T17:01:42.226Z,40.90
2018-07-21T17:04:10.359Z,41.00
2018-07-21T17:06:38.513Z,41.00
2018-07-21T17:09:08.039Z,41.00
2018-07-21T17:11:36.314Z,40.80
2018-07-21T17:14:04.505Z,41.00
2018-07-21T17:16:32.828Z,41.00
2018-07-21T17:19:01.847Z,41.10
2018-07-21T17:21:30.045Z,41.20
2018-07-21T17:26:32.808Z,41.50
2018-07-21T17:29:01.088Z,41.30
2018-07-21T17:31:29.275Z,41.40
2018-07-21T17:33:57.433Z,41.50
2018-07-21T17:36:25.632Z,41.50
2018-07-21T17:38:53.846Z,41.70
2018-07-21T17:41:22.220Z,41.80
2018-07-21T17:43:50.420Z,41.80
2018-07-21T17:46:18.876Z,41.70
2018-07-21T17:48:47.144Z,41.30
2018-07-21T17:51:15.285Z,41.30
2018-07-21T17:53:43.478Z,40.90
2018-07-21T17:56:11.658Z,40.80
2018-07-21T17:58:39.927Z,40.70
2018-07-21T18:01:08.190Z,40.70
2018-07-21T18:03:36.430Z,40.90
2018-07-21T18:06:04.583Z,40.90
2018-07-21T18:08:32.763Z,41.10
2018-07-21T18:11:00.924Z,41.40
2018-07-21T18:13:29.179Z,41.70
2018-07-21T18:15:57.549Z,42.00
2018-07-21T18:18:25.746Z,42.00
2018-07-21T18:20:53.979Z,42.30
2018-07-21T18:23:22.248Z,42.80
2018-07-21T18:25:50.388Z,43.10
2018-07-21T18:28:18.824Z,43.70
2018-07-21T18:30:47.015Z,43.90
2018-07-21T18:33:15.192Z,44.40
2018-07-21T18:35:43.734Z,44.90
2018-07-21T18:38:11.903Z,45.30
2018-07-21T18:40:40.067Z,45.70
2018-07-21T18:43:08.346Z,45.90
2018-07-21T18:45:36.550Z,46.10
2018-07-21T18:48:04.801Z,46.20
2018-07-21T18:50:33.026Z,46.70
2018-07-21T18:53:01.335Z,46.80
2018-07-21T18:55:29.616Z,47.00
2018-07-21T18:57:57.797Z,47.20
2018-07-21T19:00:25.989Z,47.20
2018-07-21T19:02:54.232Z,47.50
2018-07-21T19:05:22.556Z,47.70
2018-07-21T19:07:50.774Z,47.80
2018-07-21T19:10:19.223Z,47.80
2018-07-21T19:12:47.392Z,48.00
2018-07-21T19:15:21.195Z,48.20
2018-07-21T19:17:49.692Z,48.20
2018-07-21T19:20:23.183Z,48.10
2018-07-21T19:22:51.416Z,48.20
2018-07-21T19:25:24.931Z,48.10
2018-07-21T19:27:53.392Z,48.30
2018-07-21T19:30:21.876Z,48.00
2018-07-21T19:32:55.466Z,48.10
2018-07-21T19:35:23.633Z,48.30
2018-07-21T19:37:51.880Z,48.20
2018-07-21T19:40:20.395Z,48.20
2018-07-21T19:42:49.140Z,48.30
2018-07-21T19:45:17.362Z,48.40
2018-07-21T19:47:45.564Z,48.60
2018-07-21T19:50:13.887Z,48.70
2018-07-21T19:52:42.258Z,48.70
2018-07-21T19:55:10.712Z,48.80
2018-07-21T19:57:39.091Z,48.70
2018-07-21T20:00:07.464Z,48.90
2018-07-21T20:02:35.995Z,49.00
2018-07-21T20:05:04.216Z,49.10
2018-07-21T20:07:32.402Z,49.10
2018-07-21T20:10:00.762Z,49.20
2018-07-21T20:12:29.059Z,49.40
2018-07-21T20:14:57.280Z,49.80
2018-07-21T20:17:25.503Z,49.70
2018-07-21T20:19:54.309Z,49.40
2018-07-21T20:22:22.501Z,49.50
2018-07-21T20:24:50.651Z,49.70
2018-07-21T20:27:18.890Z,49.80
2018-07-21T20:29:47.234Z,49.80
2018-07-21T20:32:15.418Z,50.10
2018-07-21T20:34:43.618Z,50.20
2018-07-21T20:37:11.926Z,50.30
2018-07-21T20:39:40.300Z,50.60
2018-07-21T20:42:08.577Z,50.60
2018-07-21T20:44:36.883Z,50.70
2018-07-21T20:47:05.044Z,50.90
2018-07-21T20:49:33.231Z,51.00
2018-07-21T20:52:01.574Z,51.20
2018-07-21T20:54:29.799Z,51.40
2018-07-21T20:56:58.250Z,51.60
2018-07-21T20:59:26.418Z,51.70
2018-07-21T21:01:54.581Z,51.70
2018-07-21T21:04:22.772Z,51.90
2018-07-21T21:06:51.160Z,52.00
2018-07-21T21:09:19.299Z,52.10
2018-07-21T21:11:47.558Z,52.40
2018-07-21T21:14:15.959Z,52.60
2018-07-21T21:16:44.112Z,52.90
2018-07-21T21:19:12.337Z,53.00
2018-07-21T21:21:40.543Z,53.20
2018-07-21T21:24:08.784Z,53.40
2018-07-21T21:26:36.995Z,53.50
2018-07-21T21:29:05.323Z,53.50
2018-07-21T21:31:33.534Z,53.60
2018-07-21T21:34:01.812Z,53.50
2018-07-21T21:36:30.064Z,53.70
2018-07-21T21:38:58.248Z,54.00
2018-07-21T21:41:26.405Z,53.60
2018-07-21T21:43:54.627Z,53.70
2018-07-21T21:46:22.805Z,53.70
2018-07-21T21:48:51.040Z,53.60
2018-07-21T21:51:19.285Z,53.40
2018-07-21T21:53:48.192Z,53.60
2018-07-21T21:56:16.394Z,53.60
2018-07-21T21:58:44.667Z,53.20
2018-07-21T22:01:13.676Z,53.20
2018-07-21T22:03:42.185Z,52.90
2018-07-21T22:06:10.519Z,53.10
2018-07-21T22:08:38.722Z,53.00
2018-07-21T22:11:07.101Z,53.00
2018-07-21T22:13:35.290Z,53.10
2018-07-21T22:16:03.539Z,53.10
2018-07-21T22:18:31.877Z,53.10
2018-07-21T22:21:00.069Z,53.10
2018-07-21T22:23:28.623Z,53.10
2018-07-21T22:25:56.874Z,52.90
2018-07-21T22:28:25.535Z,52.70
2018-07-21T22:30:53.779Z,52.70
2018-07-21T22:33:21.992Z,52.80
2018-07-21T22:35:50.963Z,52.60
2018-07-21T22:38:19.147Z,52.40
2018-07-21T22:40:47.322Z,52.60
2018-07-21T22:43:15.643Z,52.60
2018-07-21T22:45:43.841Z,52.80
2018-07-21T22:48:12.187Z,53.20
2018-07-21T22:50:40.384Z,52.70
2018-07-21T22:53:08.661Z,53.60
2018-07-21T22:55:36.840Z,52.90
2018-07-21T22:58:05.123Z,52.30
2018-07-21T23:00:33.288Z,52.80
2018-07-21T23:03:01.577Z,52.80
2018-07-21T23:05:29.826Z,52.90
2018-07-21T23:07:58.079Z,52.70
2018-07-21T23:10:26.327Z,53.00
2018-07-21T23:12:54.551Z,52.90
2018-07-21T23:15:22.752Z,53.00
2018-07-21T23:17:50.992Z,53.10
2018-07-21T23:20:19.605Z,53.20
2018-07-21T23:22:47.793Z,53.30
2018-07-21T23:25:16.465Z,53.40
2018-07-21T23:27:44.648Z,53.50
2018-07-21T23:30:12.777Z,53.60
2018-07-21T23:32:41.051Z,53.60
2018-07-21T23:35:09.225Z,53.60
2018-07-21T23:37:37.369Z,53.70
2018-07-21T23:40:05.676Z,53.70
2018-07-21T23:42:33.916Z,53.80
2018-07-21T23:45:02.660Z,53.70
2018-07-21T23:47:31.027Z,53.80
2018-07-21T23:49:59.193Z,53.90
2018-07-21T23:52:27.509Z,53.60
2018-07-21T23:54:55.749Z,53.50
2018-07-21T23:57:24.003Z,53.10
2018-07-21T23:59:52.177Z,52.70
